Time;durP1;ratioP1;P1;durP2;ratioP2;P2;SDS_P1;SDS_P2;PMS_P1;PMS_P2;Temp;Humidity;BMP_temperature;BMP_pressure;BME280_temperature;BME280_humidity;BME280_pressure;Samples;Min_cycle;Max_cycle;Signal;HPM_P1;HPM_P2
2024/02/21 00:00:03;;;;;;;;;;;;;;;2.70;100.00;100893.73;107870;1256;61357;-75
2024/02/21 00:02:30;;;;;;;;;;;;;;;2.71;100.00;100891.51;107838;1257;61231;-74
2024/02/21 00:04:56;;;;;;;;;;;;;;;2.70;100.00;100888.45;107948;1257;60606;-74
2024/02/21 00:07:24;;;;;;;;;;;;;;;2.69;100.00;100892.06;107950;1256;74632;-75
2024/02/21 00:09:51;;;;;;;;;;;;;;;2.68;100.00;100886.42;107852;1257;72534;-74
2024/02/21 00:12:18;;;;;;;;;;;;;;;2.69;100.00;100885.89;107923;1256;73177;-74
2024/02/21 00:14:44;;;;;;;;;;;;;;;2.72;100.00;100879.83;107863;1256;61247;-75
2024/02/21 00:17:11;;;;;;;;;;;;;;;2.75;100.00;100882.55;107932;1258;59890;-75
2024/02/21 00:19:37;;;;;;;;;;;;;;;2.79;100.00;100875.10;107911;1256;74527;-75
2024/02/21 00:22:04;;;;;;;;;;;;;;;2.85;100.00;100875.00;107901;1257;72689;-75
2024/02/21 00:24:31;;;;;;;;;;;;;;;2.88;100.00;100873.19;107939;1256;72744;-75
2024/02/21 00:26:58;;;;;;;;;;;;;;;2.90;100.00;100873.89;107901;1257;61943;-75
2024/02/21 00:29:25;;;;;;;;;;;;;;;2.92;100.00;100865.03;107855;1256;61212;-75
2024/02/21 00:31:53;;;;;;;;;;;;;;;2.93;100.00;100864.35;107852;1256;73345;-75
2024/02/21 00:34:20;;;;;;;;;;;;;;;2.94;100.00;100862.38;107887;1257;72804;-74
2024/02/21 00:36:48;;;;;;;;;;;;;;;2.92;100.00;100851.40;107878;1256;72738;-75
2024/02/21 00:39:14;;;;;;;;;;;;;;;2.91;100.00;100856.27;107836;1256;61211;-75
2024/02/21 00:41:41;;;;;;;;;;;;;;;2.92;100.00;100850.66;107871;1256;61167;-75
2024/02/21 00:44:08;;;;;;;;;;;;;;;2.93;100.00;100846.48;107798;1256;74521;-75
2024/02/21 00:46:34;;;;;;;;;;;;;;;2.93;100.00;100846.00;107858;1257;71717;-75
2024/02/21 00:49:01;;;;;;;;;;;;;;;2.91;100.00;100838.28;107863;1256;71190;-75
2024/02/21 00:51:28;;;;;;;;;;;;;;;2.89;100.00;100835.19;107876;1256;61195;-75
2024/02/21 00:53:55;;;;;;;;;;;;;;;2.88;100.00;100833.94;107842;1256;61276;-74
2024/02/21 00:56:21;;;;;;;;;;;;;;;2.91;100.00;100832.08;107934;1256;73238;-74
2024/02/21 00:58:48;;;;;;;;;;;;;;;2.93;100.00;100834.07;107933;1256;72060;-74
2024/02/21 01:01:21;;;;;;;;;;;;;;;2.96;100.00;100830.58;107841;1256;72779;-74
2024/02/21 01:03:47;;;;;;;;;;;;;;;2.99;100.00;100827.23;107901;1256;61136;-74
2024/02/21 01:06:14;;;;;;;;;;;;;;;3.04;100.00;100825.36;107876;1256;61166;-74
2024/02/21 01:08:41;;;;;;;;;;;;;;;3.09;100.00;100825.08;107835;1256;74350;-74
2024/02/21 01:11:08;;;;;;;;;;;;;;;3.11;100.00;100824.55;107880;1260;70344;-75
2024/02/21 01:13:35;;;;;;;;;;;;;;;3.13;100.00;100819.41;107853;1256;72498;-75
2024/02/21 01:16:01;;;;;;;;;;;;;;;3.13;100.00;100821.65;107925;1256;61145;-74
2024/02/21 01:18:29;;;;;;;;;;;;;;;3.14;100.00;100816.92;107871;1256;61286;-74
2024/02/21 01:20:55;;;;;;;;;;;;;;;3.16;100.00;100814.26;108159;1256;73122;-75
2024/02/21 01:23:22;;;;;;;;;;;;;;;3.20;100.00;100816.52;107812;1256;72321;-74
2024/02/21 01:25:50;;;;;;;;;;;;;;;3.25;100.00;100814.83;107909;1256;72460;-75
2024/02/21 01:28:18;;;;;;;;;;;;;;;3.29;100.00;100814.58;107916;1256;61253;-74
2024/02/21 01:30:44;;;;;;;;;;;;;;;3.31;100.00;100808.05;107876;1256;61062;-74
2024/02/21 01:33:12;;;;;;;;;;;;;;;3.35;100.00;100808.78;107939;1256;74399;-74
2024/02/21 01:35:38;;;;;;;;;;;;;;;3.38;100.00;100809.59;107917;1256;71612;-75
2024/02/21 01:38:05;;;;;;;;;;;;;;;3.41;100.00;100806.70;107836;1256;72743;-75
2024/02/21 01:40:32;;;;;;;;;;;;;;;3.43;100.00;100800.95;107869;1260;61224;-75
2024/02/21 01:42:59;;;;;;;;;;;;;;;3.47;100.00;100801.14;107892;1256;61109;-75
2024/02/21 01:45:26;;;;;;;;;;;;;;;3.47;100.00;100804.88;107935;1256;74699;-75
2024/02/21 01:47:53;;;;;;;;;;;;;;;3.47;100.00;100799.98;107906;1256;72516;-75
2024/02/21 01:50:20;;;;;;;;;;;;;;;3.43;100.00;100799.52;107873;1256;71718;-75
2024/02/21 01:52:47;;;;;;;;;;;;;;;3.41;100.00;100798.91;107873;1256;61181;-75
2024/02/21 01:55:14;;;;;;;;;;;;;;;3.39;100.00;100797.52;107889;1256;59937;-75
2024/02/21 01:57:41;;;;;;;;;;;;;;;3.38;100.00;100800.04;107757;1256;72981;-75
2024/02/21 02:00:09;;;;;;;;;;;;;;;3.38;100.00;100802.89;107883;1256;72761;-75
2024/02/21 02:02:39;;;;;;;;;;;;;;;3.36;100.00;100800.30;107905;1256;72783;-74
2024/02/21 02:05:07;;;;;;;;;;;;;;;3.35;100.00;100799.32;107978;1256;61232;-75
2024/02/21 02:07:34;;;;;;;;;;;;;;;3.35;100.00;100798.90;107881;1257;61251;-74
2024/02/21 02:10:00;;;;;;;;;;;;;;;3.36;100.00;100800.14;107840;1257;73211;-74
2024/02/21 02:12:27;;;;;;;;;;;;;;;3.38;100.00;100803.05;107817;1256;71731;-75
2024/02/21 02:15:00;;;;;;;;;;;;;;;3.42;100.00;100804.92;107837;1256;72555;-74
2024/02/21 02:17:27;;;;;;;;;;;;;;;3.42;100.00;100803.18;107935;1257;61115;-75
2024/02/21 02:19:54;;;;;;;;;;;;;;;3.42;100.00;100798.99;107983;1256;60383;-74
2024/02/21 02:22:22;;;;;;;;;;;;;;;3.43;100.00;100801.20;107906;1256;74519;-74
2024/02/21 02:24:49;;;;;;;;;;;;;;;3.44;100.00;100801.83;107924;1256;72691;-74
2024/02/21 02:27:15;;;;;;;;;;;;;;;3.46;100.00;100798.41;107908;1256;71059;-75
2024/02/21 02:29:42;;;;;;;;;;;;;;;3.50;100.00;100801.39;107878;1257;60997;-73
2024/02/21 02:32:11;;;;;;;;;;;;;;;3.53;100.00;100800.29;107859;1256;61180;-74
2024/02/21 02:34:37;;;;;;;;;;;;;;;3.55;100.00;100798.34;107922;1257;73496;-75
2024/02/21 02:37:04;;;;;;;;;;;;;;;3.54;100.00;100801.09;107941;1256;72579;-76
2024/02/21 02:39:31;;;;;;;;;;;;;;;3.53;100.00;100804.88;107947;1256;71319;-75
2024/02/21 02:41:57;;;;;;;;;;;;;;;3.52;100.00;100806.83;107895;1256;61134;-76
2024/02/21 02:44:24;;;;;;;;;;;;;;;3.51;100.00;100806.34;107913;1256;61147;-75
2024/02/21 02:46:51;;;;;;;;;;;;;;;3.52;100.00;100808.38;107953;1256;74555;-74
2024/02/21 02:49:18;;;;;;;;;;;;;;;3.51;100.00;100811.53;107927;1256;72717;-75
2024/02/21 02:51:45;;;;;;;;;;;;;;;3.50;100.00;100808.54;107902;1256;71203;-76
2024/02/21 02:54:13;;;;;;;;;;;;;;;3.49;100.00;100809.35;108017;1256;61350;-74
2024/02/21 02:56:39;;;;;;;;;;;;;;;3.51;100.00;100809.35;107910;1256;61130;-75
2024/02/21 02:59:06;;;;;;;;;;;;;;;3.55;100.00;100811.91;107930;1256;74614;-75
2024/02/21 03:01:35;;;;;;;;;;;;;;;3.60;100.00;100812.15;107984;1256;71257;-75
2024/02/21 03:04:03;;;;;;;;;;;;;;;3.65;100.00;100814.46;107823;1257;71081;-75
2024/02/21 03:06:30;;;;;;;;;;;;;;;3.70;100.00;100811.77;107854;1256;61623;-75
2024/02/21 03:08:59;;;;;;;;;;;;;;;3.72;100.00;100812.43;107972;1256;61168;-75
2024/02/21 03:11:28;;;;;;;;;;;;;;;3.73;100.00;100814.98;107997;1256;74377;-74
2024/02/21 03:13:59;;;;;;;;;;;;;;;3.73;100.00;100815.55;107912;1257;72844;-75
2024/02/21 03:16:26;;;;;;;;;;;;;;;3.72;100.00;100820.88;108033;1256;72706;-75
2024/02/21 03:18:52;;;;;;;;;;;;;;;3.74;100.00;100820.05;107936;1256;61168;-75
2024/02/21 03:21:19;;;;;;;;;;;;;;;3.76;100.00;100821.75;107942;1256;62009;-75
2024/02/21 03:23:46;;;;;;;;;;;;;;;3.80;100.00;100818.02;107918;1256;74971;-75
2024/02/21 03:26:16;;;;;;;;;;;;;;;3.82;100.00;100819.04;107921;1256;72789;-75
2024/02/21 03:28:46;;;;;;;;;;;;;;;3.83;100.00;100819.61;107896;1260;72564;-75
2024/02/21 03:31:13;;;;;;;;;;;;;;;3.84;100.00;100822.48;107980;1256;61260;-75
2024/02/21 03:33:42;;;;;;;;;;;;;;;3.85;100.00;100825.70;107898;1256;61040;-75
2024/02/21 03:36:18;;;;;;;;;;;;;;;3.83;100.00;100826.30;107937;1256;74905;-75
2024/02/21 03:38:45;;;;;;;;;;;;;;;3.78;100.00;100826.28;108006;1256;71728;-76
2024/02/21 03:41:12;;;;;;;;;;;;;;;3.75;100.00;100830.74;107951;1256;72506;-74
2024/02/21 03:43:39;;;;;;;;;;;;;;;3.74;100.00;100828.59;107985;1256;61315;-75
2024/02/21 03:46:05;;;;;;;;;;;;;;;3.74;100.00;100832.40;107955;1256;61142;-75
2024/02/21 03:48:32;;;;;;;;;;;;;;;3.75;100.00;100832.49;107960;1256;74679;-75
2024/02/21 03:50:59;;;;;;;;;;;;;;;3.75;100.00;100833.74;107930;1256;72536;-75
2024/02/21 03:53:26;;;;;;;;;;;;;;;3.76;100.00;100834.13;107930;1256;71277;-75
2024/02/21 03:55:54;;;;;;;;;;;;;;;3.76;100.00;100833.50;107957;1256;61631;-75
2024/02/21 03:58:22;;;;;;;;;;;;;;;3.78;100.00;100832.57;107941;1256;59005;-75
2024/02/21 04:00:49;;;;;;;;;;;;;;;3.84;100.00;100835.23;108009;1256;73602;-74
2024/02/21 04:03:15;;;;;;;;;;;;;;;3.86;100.00;100833.09;108459;1256;70237;-75
2024/02/21 04:05:42;;;;;;;;;;;;;;;3.86;100.00;100831.67;108477;1256;71435;-75
2024/02/21 04:08:09;;;;;;;;;;;;;;;3.89;100.00;100835.05;108434;1256;59770;-75
2024/02/21 04:10:35;;;;;;;;;;;;;;;3.92;100.00;100835.32;107928;1256;61122;-74
2024/02/21 04:13:02;;;;;;;;;;;;;;;3.95;100.00;100836.98;107998;1260;73118;-75
2024/02/21 04:15:29;;;;;;;;;;;;;;;3.98;100.00;100837.95;107989;1256;73258;-75
2024/02/21 04:17:56;;;;;;;;;;;;;;;4.05;100.00;100840.48;107856;1256;72712;-76
2024/02/21 04:20:23;;;;;;;;;;;;;;;4.08;100.00;100843.45;107977;1256;61888;-75
2024/02/21 04:22:50;;;;;;;;;;;;;;;4.12;100.00;100845.96;107916;1256;61170;-75
2024/02/21 04:25:17;;;;;;;;;;;;;;;4.15;100.00;100845.76;107894;1256;75190;-75
2024/02/21 04:27:46;;;;;;;;;;;;;;;4.17;100.00;100845.67;107985;1257;72794;-75
2024/02/21 04:30:13;;;;;;;;;;;;;;;4.16;100.00;100842.71;107841;1259;72789;-74
2024/02/21 04:32:40;;;;;;;;;;;;;;;4.16;100.00;100846.05;107811;1256;61278;-75
2024/02/21 04:35:08;;;;;;;;;;;;;;;4.17;100.00;100846.24;107918;1256;61216;-75
2024/02/21 04:37:35;;;;;;;;;;;;;;;4.19;100.00;100845.79;107904;1256;74711;-76
2024/02/21 04:40:01;;;;;;;;;;;;;;;4.21;100.00;100848.86;107936;1256;72730;-73
2024/02/21 04:42:28;;;;;;;;;;;;;;;4.20;100.00;100850.17;107940;1256;72918;-73
2024/02/21 04:44:55;;;;;;;;;;;;;;;4.21;100.00;100846.02;107852;1260;61243;-74
2024/02/21 04:47:26;;;;;;;;;;;;;;;4.23;100.00;100851.55;107863;1256;61082;-74
2024/02/21 04:49:53;;;;;;;;;;;;;;;4.25;100.00;100854.11;107953;1256;73490;-74
2024/02/21 04:52:20;;;;;;;;;;;;;;;4.27;100.00;100853.37;107919;1256;72683;-76
2024/02/21 04:54:46;;;;;;;;;;;;;;;4.28;100.00;100854.40;107916;1256;72363;-74
2024/02/21 04:57:16;;;;;;;;;;;;;;;4.30;100.00;100856.41;107934;1256;61131;-74
2024/02/21 04:59:44;;;;;;;;;;;;;;;4.29;100.00;100852.84;107972;1256;61139;-75
2024/02/21 05:02:11;;;;;;;;;;;;;;;4.26;100.00;100853.42;108024;1260;74834;-75
2024/02/21 05:04:44;;;;;;;;;;;;;;;4.24;100.00;100852.54;107954;1257;73388;-76
2024/02/21 05:07:12;;;;;;;;;;;;;;;4.19;100.00;100854.86;108081;1256;72686;-75
2024/02/21 05:09:39;;;;;;;;;;;;;;;4.18;100.00;100860.39;108030;1256;61208;-74
2024/02/21 05:12:05;;;;;;;;;;;;;;;4.16;100.00;100861.78;107951;1256;60399;-75
2024/02/21 05:14:32;;;;;;;;;;;;;;;4.16;100.00;100865.61;107965;1256;74750;-75
2024/02/21 05:16:59;;;;;;;;;;;;;;;4.16;100.00;100862.71;107957;1256;72806;-75
2024/02/21 05:19:26;;;;;;;;;;;;;;;4.17;100.00;100866.41;107898;1256;73214;-75
2024/02/21 05:21:52;;;;;;;;;;;;;;;4.17;100.00;100865.76;107964;1256;61316;-74
2024/02/21 05:24:19;;;;;;;;;;;;;;;4.18;100.00;100867.43;107970;1256;61150;-76
2024/02/21 05:26:46;;;;;;;;;;;;;;;4.17;100.00;100870.17;107951;1256;75171;-75
2024/02/21 05:29:13;;;;;;;;;;;;;;;4.14;100.00;100870.13;107995;1256;72505;-75
2024/02/21 05:31:54;;;;;;;;;;;;;;;4.12;100.00;100870.05;107924;1256;71192;-75
2024/02/21 05:34:21;;;;;;;;;;;;;;;4.08;100.00;100869.16;107961;1260;61113;-75
2024/02/21 05:36:49;;;;;;;;;;;;;;;4.06;100.00;100872.91;107819;1257;61166;-75
2024/02/21 05:39:17;;;;;;;;;;;;;;;4.07;100.00;100870.74;107911;1256;73182;-74
2024/02/21 05:41:44;;;;;;;;;;;;;;;4.08;100.00;100874.73;107953;1256;72836;-76
2024/02/21 05:44:11;;;;;;;;;;;;;;;4.11;100.00;100880.21;107770;1256;72772;-74
2024/02/21 05:46:37;;;;;;;;;;;;;;;4.15;100.00;100881.74;107939;1256;61256;-75
2024/02/21 05:49:04;;;;;;;;;;;;;;;4.19;100.00;100885.25;107966;1256;61265;-75
2024/02/21 05:51:35;;;;;;;;;;;;;;;4.27;100.00;100886.16;107943;1256;74501;-75
2024/02/21 05:54:02;;;;;;;;;;;;;;;4.34;100.00;100885.58;108008;1256;71537;-75
2024/02/21 05:56:29;;;;;;;;;;;;;;;4.37;100.00;100890.04;107997;1256;72726;-74
2024/02/21 05:58:59;;;;;;;;;;;;;;;4.42;100.00;100889.02;107970;1257;61026;-75
2024/02/21 06:01:29;;;;;;;;;;;;;;;4.49;100.00;100890.70;108001;1256;61249;-75
2024/02/21 06:03:56;;;;;;;;;;;;;;;4.55;100.00;100887.84;107971;1256;74569;-74
2024/02/21 06:06:23;;;;;;;;;;;;;;;4.60;100.00;100886.60;107928;1257;72804;-75
2024/02/21 06:08:53;;;;;;;;;;;;;;;4.64;100.00;100884.83;107930;1257;73829;-75
2024/02/21 06:11:20;;;;;;;;;;;;;;;4.67;100.00;100888.64;107915;1256;61333;-75
2024/02/21 06:13:54;;;;;;;;;;;;;;;4.70;100.00;100895.47;107981;1256;61134;-76
2024/02/21 06:16:28;;;;;;;;;;;;;;;4.73;100.00;100892.16;108036;1256;75503;-75
2024/02/21 06:18:55;;;;;;;;;;;;;;;4.77;100.00;100890.61;107963;1256;72814;-76
2024/02/21 06:21:28;;;;;;;;;;;;;;;4.82;100.00;100892.90;107955;1256;72674;-74
2024/02/21 06:24:01;;;;;;;;;;;;;;;4.86;100.00;100895.53;107894;1256;61125;-75
2024/02/21 06:26:30;;;;;;;;;;;;;;;4.89;100.00;100892.36;108014;1256;61286;-74
2024/02/21 06:28:59;;;;;;;;;;;;;;;4.91;100.00;100892.29;107936;1256;74649;-74
2024/02/21 06:31:31;;;;;;;;;;;;;;;4.94;100.00;100893.58;108032;1256;72756;-75
2024/02/21 06:34:02;;;;;;;;;;;;;;;4.97;100.00;100897.70;107919;1256;72690;-75
2024/02/21 06:37:00;;;;;;;;;;;;;;;5.02;100.00;100900.90;107899;1256;62383;-74
2024/02/21 06:39:41;;;;;;;;;;;;;;;5.10;100.00;100902.25;107977;1256;61372;-74
2024/02/21 06:42:15;;;;;;;;;;;;;;;5.16;100.00;100906.33;107860;1259;74946;-75
2024/02/21 06:45:19;;;;;;;;;;;;;;;5.21;100.00;100908.51;107793;1256;71557;-75
2024/02/21 06:48:04;;;;;;;;;;;;;;;5.22;100.00;100908.20;107759;1256;72555;-74
2024/02/21 06:50:39;;;;;;;;;;;;;;;5.21;100.00;100911.94;107933;1257;61898;-75
2024/02/21 06:53:05;;;;;;;;;;;;;;;5.21;100.00;100913.52;107746;1257;61245;-75
2024/02/21 06:55:33;;;;;;;;;;;;;;;5.23;100.00;100910.41;107716;1256;74787;-74
2024/02/21 06:58:00;;;;;;;;;;;;;;;5.17;100.00;100914.55;108034;1256;72721;-74
2024/02/21 07:00:28;;;;;;;;;;;;;;;5.09;100.00;100915.45;108000;1256;71438;-75
2024/02/21 07:02:55;;;;;;;;;;;;;;;4.98;100.00;100919.33;107849;1256;61120;-74
2024/02/21 07:05:22;;;;;;;;;;;;;;;4.91;100.00;100919.08;107895;1256;61095;-74
2024/02/21 07:07:49;;;;;;;;;;;;;;;4.92;100.00;100916.70;107807;1256;75979;-74
2024/02/21 07:10:16;;;;;;;;;;;;;;;4.99;100.00;100917.38;107815;1257;71357;-75
2024/02/21 07:12:44;;;;;;;;;;;;;;;5.10;100.00;100918.17;107742;1257;71132;-76
2024/02/21 07:15:10;;;;;;;;;;;;;;;5.21;100.00;100920.20;107754;1257;61670;-75
2024/02/21 07:17:37;;;;;;;;;;;;;;;5.23;100.00;100922.25;107722;1257;61100;-76
2024/02/21 07:20:07;;;;;;;;;;;;;;;5.23;100.00;100927.15;107688;1256;73910;-76
2024/02/21 07:22:34;;;;;;;;;;;;;;;5.22;100.00;100924.55;107985;1256;71499;-76
2024/02/21 07:25:00;;;;;;;;;;;;;;;5.22;100.00;100925.40;107759;1256;72559;-75
2024/02/21 07:27:33;;;;;;;;;;;;;;;5.22;100.00;100929.88;107834;1256;61247;-75
2024/02/21 07:30:00;;;;;;;;;;;;;;;5.18;100.00;100927.98;107892;1257;61145;-76
2024/02/21 07:32:27;;;;;;;;;;;;;;;5.11;100.00;100930.99;108020;1257;76148;-76
2024/02/21 07:34:56;;;;;;;;;;;;;;;5.08;100.00;100933.84;107875;1259;73273;-76
2024/02/21 07:37:26;;;;;;;;;;;;;;;5.08;100.00;100930.58;107816;1256;73969;-75
2024/02/21 07:39:58;;;;;;;;;;;;;;;5.09;100.00;100932.06;107773;1260;61168;-75
2024/02/21 07:42:24;;;;;;;;;;;;;;;5.11;100.00;100935.64;107752;1256;61133;-76
2024/02/21 07:44:51;;;;;;;;;;;;;;;5.15;100.00;100937.34;107763;1256;74575;-75
2024/02/21 07:47:18;;;;;;;;;;;;;;;5.19;100.00;100939.52;107725;1256;72590;-77
2024/02/21 07:49:45;;;;;;;;;;;;;;;5.16;100.00;100933.95;107582;1257;72690;-77
2024/02/21 07:52:13;;;;;;;;;;;;;;;5.14;100.00;100936.86;107704;1257;61142;-76
2024/02/21 07:54:41;;;;;;;;;;;;;;;5.17;100.00;100936.75;107837;1256;61222;-75
2024/02/21 07:57:07;;;;;;;;;;;;;;;5.24;100.00;100934.77;107755;1260;72863;-75
2024/02/21 07:59:34;;;;;;;;;;;;;;;5.31;100.00;100934.98;107901;1256;72794;-78
2024/02/21 08:02:02;;;;;;;;;;;;;;;5.36;100.00;100936.73;107930;1256;73964;-79
2024/02/21 08:04:30;;;;;;;;;;;;;;;5.38;100.00;100939.28;107773;1257;62126;-76
2024/02/21 08:07:01;;;;;;;;;;;;;;;5.38;100.00;100938.22;107826;1256;60859;-78
2024/02/21 08:09:28;;;;;;;;;;;;;;;5.37;100.00;100940.23;107768;1256;74931;-76
2024/02/21 08:11:56;;;;;;;;;;;;;;;5.38;100.00;100938.48;107869;1256;72480;-77
2024/02/21 08:14:25;;;;;;;;;;;;;;;5.41;100.00;100940.20;107898;1255;71406;-78
2024/02/21 08:16:54;;;;;;;;;;;;;;;5.47;100.00;100942.09;107655;1256;62283;-77
2024/02/21 08:19:22;;;;;;;;;;;;;;;5.51;100.00;100936.31;107823;1256;59587;-76
2024/02/21 08:21:49;;;;;;;;;;;;;;;5.58;100.00;100940.27;107793;1256;73495;-78
2024/02/21 08:24:16;;;;;;;;;;;;;;;5.63;100.00;100936.71;107904;1257;73096;-78
2024/02/21 08:26:44;;;;;;;;;;;;;;;5.70;100.00;100939.89;108143;1257;71465;-76
2024/02/21 08:29:14;;;;;;;;;;;;;;;5.79;100.00;100936.64;107898;1259;63498;-78
2024/02/21 08:31:41;;;;;;;;;;;;;;;5.87;100.00;100941.55;107891;1255;61355;-76
2024/02/21 08:34:08;;;;;;;;;;;;;;;5.91;100.00;100942.02;107742;1256;74763;-76
2024/02/21 08:36:36;;;;;;;;;;;;;;;5.97;100.00;100942.66;107841;1258;73734;-76
2024/02/21 08:39:06;;;;;;;;;;;;;;;6.04;100.00;100942.99;107749;1257;72535;-77
2024/02/21 08:41:33;;;;;;;;;;;;;;;6.07;100.00;100941.14;107902;1255;61925;-77
2024/02/21 08:44:22;;;;;;;;;;;;;;;6.16;100.00;100943.84;107810;1259;59231;-76
2024/02/21 08:46:48;;;;;;;;;;;;;;;6.25;100.00;100943.95;107722;1256;73635;-76
2024/02/21 08:49:15;;;;;;;;;;;;;;;6.31;100.00;100946.00;107804;1256;72844;-77
2024/02/21 08:51:43;;;;;;;;;;;;;;;6.36;100.00;100939.68;107793;1260;72684;-77
2024/02/21 08:54:11;;;;;;;;;;;;;;;6.44;100.00;100942.09;107893;1256;63481;-76
2024/02/21 08:56:38;;;;;;;;;;;;;;;6.57;100.00;100941.46;107837;1255;61153;-77
2024/02/21 08:59:05;;;;;;;;;;;;;;;6.71;100.00;100942.79;107752;1258;74847;-78
2024/02/21 09:01:33;;;;;;;;;;;;;;;6.81;100.00;100941.73;107714;1256;71610;-74
2024/02/21 09:04:00;;;;;;;;;;;;;;;6.93;100.00;100940.15;107768;1256;72756;-76
2024/02/21 09:06:28;;;;;;;;;;;;;;;7.07;100.00;100931.45;107624;1257;62602;-76
2024/02/21 09:08:56;;;;;;;;;;;;;;;7.23;100.00;100938.01;107922;1256;61106;-76
2024/02/21 09:11:23;;;;;;;;;;;;;;;7.41;100.00;100936.38;107897;1259;74494;-76
2024/02/21 09:13:50;;;;;;;;;;;;;;;7.57;100.00;100933.28;107913;1256;72507;-76
2024/02/21 09:16:18;;;;;;;;;;;;;;;7.73;100.00;100924.48;107879;1256;71503;-76
2024/02/21 09:18:46;;;;;;;;;;;;;;;7.81;100.00;100928.20;107961;1256;61928;-74
2024/02/21 09:21:13;;;;;;;;;;;;;;;7.95;100.00;100924.52;107973;1256;61109;-76
2024/02/21 09:23:40;;;;;;;;;;;;;;;8.02;100.00;100923.90;107676;1256;75851;-76
2024/02/21 09:26:07;;;;;;;;;;;;;;;8.12;100.00;100925.55;108010;1256;71577;-76
2024/02/21 09:28:34;;;;;;;;;;;;;;;8.18;100.00;100925.49;107996;1256;70587;-75
2024/02/21 09:31:01;;;;;;;;;;;;;;;8.27;100.00;100919.15;107838;1256;62126;-76
2024/02/21 09:33:30;;;;;;;;;;;;;;;8.33;100.00;100918.30;107924;1256;59343;-76
2024/02/21 09:36:00;;;;;;;;;;;;;;;8.29;100.00;100917.63;107994;1256;75911;-76
2024/02/21 09:38:27;;;;;;;;;;;;;;;8.25;100.00;100914.61;107939;1256;72776;-76
2024/02/21 09:41:09;;;;;;;;;;;;;;;8.22;100.00;100913.83;107717;1256;72752;-75
2024/02/21 09:43:36;;;;;;;;;;;;;;;8.21;100.00;100908.85;107866;1259;61121;-75
2024/02/21 09:46:03;;;;;;;;;;;;;;;8.34;100.00;100900.82;107956;1256;61262;-75
2024/02/21 09:48:48;;;;;;;;;;;;;;;8.38;100.00;100904.02;107720;1256;74879;-76
2024/02/21 09:51:15;;;;;;;;;;;;;;;8.45;100.00;100906.31;108015;1260;72833;-77
2024/02/21 09:53:42;;;;;;;;;;;;;;;8.47;100.00;100901.88;107923;1256;361859;-74
2024/02/21 09:56:15;;;;;;;;;;;;;;;8.35;100.00;100895.27;107969;1256;63297;-75
2024/02/21 09:58:43;;;;;;;;;;;;;;;8.17;100.00;100897.30;107968;1256;60018;-75
2024/02/21 10:01:10;;;;;;;;;;;;;;;8.02;100.00;100905.17;107732;1256;75862;-76
2024/02/21 10:03:56;;;;;;;;;;;;;;;7.96;100.00;100901.52;107983;1257;74236;-75
2024/02/21 10:06:27;;;;;;;;;;;;;;;7.99;100.00;100901.23;107893;1257;72441;-77
2024/02/21 10:08:54;;;;;;;;;;;;;;;7.95;100.00;100903.21;107939;1256;61569;-77
2024/02/21 10:11:25;;;;;;;;;;;;;;;7.90;100.00;100901.05;107887;1256;61183;-75
2024/02/21 10:14:03;;;;;;;;;;;;;;;7.76;100.00;100900.30;107836;1256;74370;-75
2024/02/21 10:16:31;;;;;;;;;;;;;;;7.69;100.00;100901.52;107988;1256;72830;-77
2024/02/21 10:18:58;;;;;;;;;;;;;;;7.68;100.00;100900.39;107986;1260;73924;-77
2024/02/21 10:21:25;;;;;;;;;;;;;;;7.68;100.00;100897.40;107882;1257;61235;-76
2024/02/21 10:23:51;;;;;;;;;;;;;;;7.68;100.00;100895.98;108010;1256;61067;-77
2024/02/21 10:26:19;;;;;;;;;;;;;;;7.72;100.00;100899.05;108002;1256;75082;-76
2024/02/21 10:28:51;;;;;;;;;;;;;;;7.80;100.00;100899.50;107957;1256;74541;-76
2024/02/21 10:31:22;;;;;;;;;;;;;;;7.86;100.00;100898.30;107711;1262;71622;-76
2024/02/21 10:33:56;;;;;;;;;;;;;;;7.89;100.00;100896.90;107875;1256;62209;-78
2024/02/21 10:36:24;;;;;;;;;;;;;;;7.96;100.00;100894.64;107955;1256;61106;-75
2024/02/21 10:38:54;;;;;;;;;;;;;;;8.02;100.00;100893.40;108009;1256;75024;-76
2024/02/21 10:41:21;;;;;;;;;;;;;;;8.06;100.00;100890.68;107941;1257;71691;-76
2024/02/21 10:43:55;;;;;;;;;;;;;;;8.07;100.00;100891.14;107931;1256;72735;-76
2024/02/21 10:46:23;;;;;;;;;;;;;;;8.07;100.00;100889.10;108023;1256;61287;-76
2024/02/21 10:49:02;;;;;;;;;;;;;;;8.00;100.00;100889.75;108151;1257;60996;-77
2024/02/21 10:51:35;;;;;;;;;;;;;;;7.93;100.00;100891.35;108169;1256;74608;-77
2024/02/21 10:54:04;;;;;;;;;;;;;;;7.88;100.00;100892.89;108462;1256;72774;-74
2024/02/21 10:56:35;;;;;;;;;;;;;;;7.83;100.00;100889.47;107995;1256;73890;-75
2024/02/21 10:59:02;;;;;;;;;;;;;;;7.77;100.00;100886.55;107986;1256;61338;-76
2024/02/21 11:01:31;;;;;;;;;;;;;;;7.70;100.00;100883.90;108016;1256;61273;-75
2024/02/21 11:03:59;;;;;;;;;;;;;;;7.65;100.00;100887.55;107989;1256;73552;-76
2024/02/21 11:06:27;;;;;;;;;;;;;;;7.63;100.00;100885.52;107957;1257;73122;-76
2024/02/21 11:09:00;;;;;;;;;;;;;;;7.62;100.00;100884.81;107699;1256;72764;-76
2024/02/21 11:11:30;;;;;;;;;;;;;;;7.63;100.00;100881.90;107887;1256;62046;-76
2024/02/21 11:14:18;;;;;;;;;;;;;;;7.61;100.00;100881.77;107907;1256;61247;-76
2024/02/21 11:16:45;;;;;;;;;;;;;;;7.61;100.00;100885.38;107958;1256;75650;-75
2024/02/21 11:19:28;;;;;;;;;;;;;;;7.64;100.00;100886.52;107954;1257;73027;-75
2024/02/21 11:21:56;;;;;;;;;;;;;;;7.71;100.00;100880.73;108157;1256;72741;-76
2024/02/21 11:24:30;;;;;;;;;;;;;;;7.81;100.00;100878.20;107951;1256;62209;-76
2024/02/21 11:27:11;;;;;;;;;;;;;;;7.90;100.00;100870.85;107971;1256;59595;-75
2024/02/21 11:29:50;;;;;;;;;;;;;;;7.96;100.00;100869.02;108008;1256;74641;-76
2024/02/21 11:32:21;;;;;;;;;;;;;;;7.97;100.00;100865.74;107970;1256;71283;-75
2024/02/21 11:34:58;;;;;;;;;;;;;;;7.91;100.00;100867.52;107905;1256;71379;-76
2024/02/21 11:37:39;;;;;;;;;;;;;;;7.87;100.00;100861.21;107603;1256;61369;-76
2024/02/21 11:40:09;;;;;;;;;;;;;;;7.87;100.00;100862.36;107985;1260;60443;-75
2024/02/21 11:42:36;;;;;;;;;;;;;;;7.87;100.00;100863.96;107884;1256;75065;-75
2024/02/21 11:45:03;;;;;;;;;;;;;;;7.80;100.00;100866.52;107880;1256;72151;-75
2024/02/21 11:47:38;;;;;;;;;;;;;;;7.74;100.00;100864.41;107954;1256;72727;-75
2024/02/21 11:50:09;;;;;;;;;;;;;;;7.74;100.00;100860.08;107994;1256;62091;-76
2024/02/21 11:52:36;;;;;;;;;;;;;;;7.76;100.00;100861.69;108014;1257;61253;-77
2024/02/21 11:55:04;;;;;;;;;;;;;;;7.76;100.00;100861.23;107890;1257;76132;-76
2024/02/21 11:57:41;;;;;;;;;;;;;;;7.81;100.00;100858.73;107893;1256;72695;-76
2024/02/21 12:00:12;;;;;;;;;;;;;;;7.94;100.00;100855.23;107978;1256;73250;-77
2024/02/21 12:02:39;;;;;;;;;;;;;;;8.03;100.00;100856.10;108000;1256;61213;-76
2024/02/21 12:05:06;;;;;;;;;;;;;;;8.12;100.00;100858.63;107985;1256;61236;-76
2024/02/21 12:07:35;;;;;;;;;;;;;;;8.22;100.00;100859.02;107817;1257;74533;-76
2024/02/21 12:10:03;;;;;;;;;;;;;;;8.26;100.00;100856.21;107953;1260;70689;-76
2024/02/21 12:12:30;;;;;;;;;;;;;;;8.34;100.00;100860.85;108013;1256;72627;-76
2024/02/21 12:14:59;;;;;;;;;;;;;;;8.41;100.00;100856.18;107965;1259;61475;-75
2024/02/21 12:17:26;;;;;;;;;;;;;;;8.45;100.00;100859.02;107980;1257;61142;-75
2024/02/21 12:19:56;;;;;;;;;;;;;;;8.47;100.00;100856.29;107977;1256;75768;-74
2024/02/21 12:22:25;;;;;;;;;;;;;;;8.51;100.00;100858.08;107940;1260;71745;-74
2024/02/21 12:24:51;;;;;;;;;;;;;;;8.57;100.00;100856.40;107980;1256;71827;-75
2024/02/21 12:27:18;;;;;;;;;;;;;;;8.55;100.00;100858.33;107892;1256;62079;-74
2024/02/21 12:29:45;;;;;;;;;;;;;;;8.49;100.00;100858.25;107949;1256;61156;-75
2024/02/21 12:32:12;;;;;;;;;;;;;;;8.37;100.00;100850.70;107910;1257;75699;-76